createdAt,value
2023-02-24T00:02:07.191Z,7.30
2023-02-24T00:04:41.775Z,7.80
2023-02-24T00:07:12.797Z,8.00
2023-02-24T00:09:44.584Z,7.50
2023-02-24T00:12:16.050Z,7.30
2023-02-24T00:14:47.012Z,7.30
2023-02-24T00:17:20.067Z,8.30
2023-02-24T00:19:49.543Z,8.20
2023-02-24T00:22:19.464Z,7.30
2023-02-24T00:24:51.728Z,7.30
2023-02-24T00:27:21.231Z,7.30
2023-02-24T00:29:51.871Z,7.80
2023-02-24T00:32:22.748Z,8.40
2023-02-24T00:34:52.238Z,7.60
2023-02-24T00:37:24.433Z,8.00
2023-02-24T00:39:59.501Z,7.70
2023-02-24T00:42:31.051Z,8.10
2023-02-24T00:45:00.346Z,7.20
2023-02-24T00:47:34.043Z,8.10
2023-02-24T00:50:05.417Z,8.10
2023-02-24T00:52:35.134Z,7.10
2023-02-24T00:55:14.250Z,8.00
2023-02-24T00:57:45.314Z,7.10
2023-02-24T01:00:19.209Z,7.80
2023-02-24T01:02:49.921Z,7.20
2023-02-24T01:05:20.194Z,7.20
2023-02-24T01:07:53.767Z,7.20
2023-02-24T01:10:27.008Z,8.00
2023-02-24T01:12:55.918Z,7.20
2023-02-24T01:15:25.042Z,7.30
2023-02-24T01:17:55.747Z,7.30
2023-02-24T01:20:25.042Z,7.30
2023-02-24T01:22:57.611Z,7.30
2023-02-24T01:25:31.524Z,7.30
2023-02-24T01:28:01.613Z,7.40
2023-02-24T01:30:31.458Z,8.00
2023-02-24T01:33:02.488Z,7.40
2023-02-24T01:35:35.609Z,7.90
2023-02-24T01:38:06.322Z,7.80
2023-02-24T01:40:36.707Z,7.60
2023-02-24T01:43:09.088Z,7.60
2023-02-24T01:45:40.563Z,8.40
2023-02-24T01:48:13.162Z,7.50
2023-02-24T01:50:43.012Z,7.80
2023-02-24T01:53:12.999Z,8.00
2023-02-24T01:55:47.779Z,7.60
2023-02-24T01:58:25.869Z,7.50
2023-02-24T02:00:59.356Z,8.20
2023-02-24T02:03:36.739Z,7.50
2023-02-24T02:06:09.166Z,8.20
2023-02-24T02:08:41.977Z,7.40
2023-02-24T02:11:15.356Z,7.40
2023-02-24T02:13:47.011Z,8.40
2023-02-24T02:16:47.765Z,7.30
2023-02-24T02:19:45.935Z,7.30
2023-02-24T02:22:48.135Z,7.60
2023-02-24T02:25:27.336Z,7.90
2023-02-24T02:28:25.521Z,7.30
2023-02-24T02:31:29.261Z,7.30
2023-02-24T02:37:05.765Z,8.10
2023-02-24T02:39:44.424Z,7.20
2023-02-24T02:42:21.703Z,7.30
2023-02-24T02:45:00.462Z,7.30
2023-02-24T02:47:35.476Z,7.30
2023-02-24T02:50:21.457Z,7.30
2023-02-24T02:52:57.028Z,7.20
2023-02-24T02:55:31.566Z,7.20
2023-02-24T02:58:02.553Z,7.20
2023-02-24T03:00:37.137Z,7.10
2023-02-24T03:03:12.673Z,7.10
2023-02-24T03:05:50.735Z,7.10
2023-02-24T03:08:25.813Z,7.10
2023-02-24T03:11:00.358Z,7.20
2023-02-24T03:13:33.038Z,7.10
2023-02-24T03:16:04.425Z,7.00
2023-02-24T03:18:36.488Z,7.00
2023-02-24T03:21:09.100Z,7.00
2023-02-24T03:23:48.374Z,7.10
2023-02-24T03:26:23.448Z,7.00
2023-02-24T03:28:59.593Z,7.00
2023-02-24T03:31:34.542Z,7.00
2023-02-24T03:34:08.243Z,7.00
2023-02-24T03:36:37.342Z,6.90
2023-02-24T03:39:12.102Z,7.00
2023-02-24T03:41:57.363Z,6.90
2023-02-24T03:44:28.827Z,6.90
2023-02-24T03:46:57.558Z,6.90
2023-02-24T03:49:27.107Z,6.90
2023-02-24T03:52:12.524Z,6.90
2023-02-24T03:54:59.187Z,6.90
2023-02-24T03:57:54.730Z,6.90
2023-02-24T04:00:35.325Z,6.90
2023-02-24T04:03:13.690Z,6.90
2023-02-24T04:05:47.947Z,6.90
2023-02-24T04:08:20.192Z,6.90
2023-02-24T04:10:58.134Z,6.80
2023-02-24T04:13:35.402Z,6.80
2023-02-24T04:16:16.871Z,6.80
2023-02-24T04:18:50.549Z,6.70
2023-02-24T04:21:23.509Z,6.70
2023-02-24T04:23:53.216Z,6.70
2023-02-24T04:26:24.903Z,6.60
2023-02-24T04:28:57.475Z,6.60
2023-02-24T04:31:30.929Z,6.60
2023-02-24T04:34:00.259Z,6.60
2023-02-24T04:36:38.267Z,6.60
2023-02-24T04:39:07.951Z,6.50
2023-02-24T04:41:38.739Z,6.50
2023-02-24T04:44:07.328Z,6.50
2023-02-24T04:46:36.026Z,6.50
2023-02-24T04:49:05.520Z,6.50
2023-02-24T04:51:34.092Z,6.50
2023-02-24T04:54:03.730Z,6.50
2023-02-24T04:56:32.346Z,6.50
2023-02-24T04:59:02.586Z,6.50
2023-02-24T05:01:31.941Z,6.50
2023-02-24T05:04:01.130Z,6.50
2023-02-24T05:06:29.959Z,6.50
2023-02-24T05:09:01.387Z,6.40
2023-02-24T05:11:34.804Z,6.40
2023-02-24T05:14:05.060Z,6.40
2023-02-24T05:16:34.518Z,6.30
2023-02-24T05:19:20.623Z,6.30
2023-02-24T05:21:49.137Z,6.40
2023-02-24T05:24:17.639Z,6.40
2023-02-24T05:26:46.715Z,6.40
2023-02-24T05:29:16.623Z,6.40
2023-02-24T05:31:45.977Z,6.40
2023-02-24T05:34:17.210Z,6.30
2023-02-24T05:36:46.380Z,6.30
2023-02-24T05:39:19.281Z,6.40
2023-02-24T05:41:49.857Z,6.30
2023-02-24T05:44:23.313Z,6.30
2023-02-24T05:46:56.781Z,6.30
2023-02-24T05:49:29.212Z,6.30
2023-02-24T06:21:08.475Z,6.10
2023-02-24T06:23:37.065Z,6.00
2023-02-24T06:26:12.761Z,6.00
2023-02-24T06:28:43.257Z,6.00
2023-02-24T06:31:12.277Z,5.90
2023-02-24T06:33:41.844Z,5.90
2023-02-24T06:36:14.278Z,5.90
2023-02-24T06:38:43.117Z,5.90
2023-02-24T06:41:14.557Z,5.90
2023-02-24T06:43:45.080Z,5.90
2023-02-24T06:46:15.323Z,5.90
2023-02-24T06:48:44.267Z,5.90
2023-02-24T06:51:16.493Z,5.90
2023-02-24T06:53:45.661Z,5.90
2023-02-24T06:56:16.155Z,5.90
2023-02-24T06:58:46.287Z,5.80
2023-02-24T07:01:16.443Z,5.80
2023-02-24T07:04:03.552Z,5.80
2023-02-24T07:06:36.443Z,5.80
2023-02-24T07:09:07.152Z,5.90
2023-02-24T07:11:37.876Z,5.90
2023-02-24T07:14:06.443Z,5.90
2023-02-24T07:16:35.925Z,5.90
2023-02-24T07:19:11.188Z,6.00
2023-02-24T07:21:46.689Z,6.00
2023-02-24T07:24:24.802Z,6.00
2023-02-24T07:26:58.201Z,6.00
2023-02-24T07:29:28.303Z,6.00
2023-02-24T07:32:01.414Z,6.10
2023-02-24T07:34:30.444Z,6.20
2023-02-24T07:37:02.651Z,6.20
2023-02-24T07:39:32.139Z,6.20
2023-02-24T07:42:00.737Z,6.20
2023-02-24T07:44:30.204Z,6.30
2023-02-24T07:46:59.418Z,6.30
2023-02-24T07:49:30.250Z,6.30
2023-02-24T07:52:01.980Z,6.30
2023-02-24T07:54:30.928Z,6.50
2023-02-24T07:57:00.179Z,6.40
2023-02-24T07:59:30.496Z,6.40
2023-02-24T08:01:59.320Z,6.40
2023-02-24T08:04:30.388Z,6.40
2023-02-24T08:07:03.232Z,6.40
2023-02-24T08:10:03.906Z,6.40
2023-02-24T08:12:35.106Z,6.50
2023-02-24T08:15:17.063Z,6.50
2023-02-24T08:17:47.365Z,6.40
2023-02-24T08:20:29.937Z,6.50
2023-02-24T08:23:00.134Z,6.40
2023-02-24T08:25:36.464Z,6.50
2023-02-24T08:28:09.685Z,6.50
2023-02-24T08:30:45.097Z,6.50
2023-02-24T08:33:19.201Z,6.50
2023-02-24T08:35:52.850Z,6.60
2023-02-24T08:38:26.363Z,6.70
2023-02-24T08:40:58.515Z,6.70
2023-02-24T08:43:34.972Z,6.70
2023-02-24T08:46:18.197Z,6.70
2023-02-24T08:48:49.182Z,6.70
2023-02-24T08:51:23.102Z,6.70
2023-02-24T08:53:55.164Z,6.70
2023-02-24T08:56:25.809Z,6.70
2023-02-24T08:59:05.306Z,6.80
2023-02-24T09:01:36.265Z,6.70
2023-02-24T09:04:08.082Z,6.80
2023-02-24T09:06:43.761Z,6.80
2023-02-24T09:09:22.447Z,6.80
2023-02-24T09:11:56.133Z,6.80
2023-02-24T09:14:28.748Z,6.70
2023-02-24T09:17:06.974Z,6.70
2023-02-24T09:19:58.781Z,6.70
2023-02-24T09:22:31.632Z,6.70
2023-02-24T09:25:19.127Z,6.70
2023-02-24T09:27:52.298Z,6.70
2023-02-24T09:30:38.456Z,6.70
2023-02-24T09:33:17.592Z,6.80
2023-02-24T09:35:51.994Z,6.80
2023-02-24T09:38:42.804Z,6.80
2023-02-24T09:41:31.732Z,6.80
2023-02-24T09:44:07.251Z,6.90
2023-02-24T09:46:54.216Z,7.00
2023-02-24T09:49:28.436Z,7.00
2023-02-24T09:52:08.899Z,7.10
2023-02-24T09:54:37.514Z,7.10
2023-02-24T09:57:16.941Z,7.10
2023-02-24T10:00:01.380Z,7.10
2023-02-24T10:02:44.327Z,7.10
2023-02-24T10:05:26.696Z,7.10
2023-02-24T10:07:57.535Z,7.10
2023-02-24T10:10:29.836Z,7.00
2023-02-24T10:13:14.754Z,7.00
2023-02-24T10:15:59.066Z,7.10
2023-02-24T10:18:31.670Z,7.10
2023-02-24T10:21:10.882Z,7.10
2023-02-24T10:23:59.655Z,7.10
2023-02-24T10:26:51.223Z,7.10
2023-02-24T10:29:43.642Z,7.20
2023-02-24T10:32:35.483Z,7.30
2023-02-24T10:35:06.298Z,7.40
2023-02-24T10:37:35.199Z,7.40
2023-02-24T10:40:09.962Z,7.50
2023-02-24T10:42:45.868Z,7.60
2023-02-24T10:45:19.349Z,7.60
2023-02-24T10:47:56.502Z,7.60
2023-02-24T10:50:29.814Z,7.70
2023-02-24T10:53:26.013Z,7.80
2023-02-24T10:56:15.028Z,7.70
2023-02-24T10:58:56.538Z,7.70
2023-02-24T11:01:54.873Z,7.70
2023-02-24T11:04:33.339Z,7.60
2023-02-24T11:07:10.292Z,7.60
2023-02-24T11:09:52.361Z,7.70
2023-02-24T11:12:41.850Z,7.70
2023-02-24T11:15:37.834Z,7.80
2023-02-24T11:18:10.496Z,7.80
2023-02-24T11:20:49.482Z,7.80
2023-02-24T11:23:23.211Z,7.70
2023-02-24T11:25:54.946Z,7.80
2023-02-24T11:28:38.666Z,7.80
2023-02-24T11:31:17.406Z,7.80
2023-02-24T11:33:55.672Z,7.80
2023-02-24T11:36:31.508Z,7.70
2023-02-24T11:39:18.989Z,7.70
2023-02-24T11:41:55.545Z,7.70
2023-02-24T11:44:30.688Z,7.70
2023-02-24T11:47:07.267Z,7.60
2023-02-24T11:49:44.269Z,7.60
2023-02-24T11:52:19.018Z,7.50
2023-02-24T11:54:51.438Z,7.50
2023-02-24T11:57:25.028Z,7.50
2023-02-24T12:00:04.927Z,7.40
2023-02-24T12:02:47.086Z,7.40
2023-02-24T12:05:20.460Z,7.30
2023-02-24T12:07:52.106Z,7.30
2023-02-24T12:10:24.695Z,7.20
2023-02-24T12:13:05.086Z,7.30
2023-02-24T12:15:40.322Z,7.30
2023-02-24T12:18:17.726Z,7.30
2023-02-24T12:20:51.665Z,7.30
2023-02-24T12:23:24.926Z,7.20
2023-02-24T12:26:06.791Z,7.20
2023-02-24T12:29:03.009Z,7.20
2023-02-24T12:31:38.922Z,7.20
2023-02-24T12:34:14.433Z,7.20
2023-02-24T12:36:58.379Z,7.20
2023-02-24T12:39:36.890Z,7.10
2023-02-24T12:42:14.717Z,7.10
2023-02-24T12:44:53.557Z,7.20
2023-02-24T12:47:27.920Z,7.10
2023-02-24T12:50:11.958Z,7.10
2023-02-24T12:52:52.355Z,7.10
2023-02-24T12:55:26.449Z,7.10
2023-02-24T12:58:05.459Z,7.10
2023-02-24T13:00:43.721Z,7.10
2023-02-24T13:03:29.051Z,7.10
2023-02-24T13:06:06.274Z,7.10
2023-02-24T13:08:44.893Z,7.00
2023-02-24T13:11:22.320Z,7.00
2023-02-24T13:14:03.883Z,6.90
2023-02-24T13:16:34.754Z,6.90
2023-02-24T13:19:07.907Z,6.80
2023-02-24T13:21:36.519Z,6.80
2023-02-24T13:24:06.897Z,6.70
2023-02-24T13:26:35.480Z,6.70
2023-02-24T13:29:11.155Z,6.70
2023-02-24T13:31:45.557Z,6.60
2023-02-24T13:34:16.619Z,6.60
2023-02-24T13:36:49.911Z,6.60
2023-02-24T13:39:27.118Z,6.60
2023-02-24T13:42:05.224Z,6.50
2023-02-24T13:44:34.599Z,6.50
2023-02-24T13:47:41.594Z,6.50
2023-02-24T13:50:21.947Z,6.50
2023-02-24T13:53:20.012Z,6.50
2023-02-24T13:56:04.933Z,6.50
2023-02-24T13:58:56.881Z,6.50
2023-02-24T14:01:30.561Z,6.50
2023-02-24T14:04:14.346Z,6.40
2023-02-24T14:06:48.816Z,6.40
2023-02-24T14:09:23.042Z,6.40
2023-02-24T14:12:00.726Z,6.40
2023-02-24T14:14:30.468Z,6.40
2023-02-24T14:16:59.067Z,6.50
2023-02-24T14:19:28.118Z,6.40
2023-02-24T14:21:58.761Z,6.40
2023-02-24T14:24:29.133Z,6.40
2023-02-24T14:27:00.261Z,6.40
2023-02-24T14:29:32.789Z,6.40
2023-02-24T14:32:02.445Z,6.40
2023-02-24T14:34:34.000Z,6.40
2023-02-24T14:37:04.337Z,6.40
2023-02-24T14:39:34.299Z,6.40
2023-02-24T14:42:13.511Z,6.40
2023-02-24T14:44:43.926Z,6.40
2023-02-24T14:47:15.187Z,6.40
2023-02-24T14:49:52.706Z,6.40
2023-02-24T14:52:30.650Z,6.40
2023-02-24T14:55:02.608Z,6.60
2023-02-24T14:57:36.600Z,6.40
2023-02-24T15:00:11.725Z,6.40
2023-02-24T15:02:44.781Z,6.40
2023-02-24T15:05:13.622Z,6.40
2023-02-24T15:07:45.758Z,6.40
2023-02-24T15:10:26.161Z,6.40
2023-02-24T15:13:01.052Z,6.30
2023-02-24T15:15:34.152Z,6.30
2023-02-24T15:18:12.393Z,6.40
2023-02-24T15:20:42.007Z,6.40
2023-02-24T15:23:27.438Z,6.40
2023-02-24T15:25:55.977Z,6.40
2023-02-24T15:28:30.563Z,6.50
2023-02-24T15:31:06.086Z,6.40
2023-02-24T15:33:40.073Z,6.40
2023-02-24T15:36:12.493Z,6.50
2023-02-24T15:38:43.455Z,6.40
2023-02-24T15:41:15.094Z,6.50
2023-02-24T15:43:50.422Z,6.50
2023-02-24T15:46:25.971Z,6.40
2023-02-24T15:48:57.463Z,6.40
2023-02-24T15:51:33.154Z,6.30
2023-02-24T15:54:03.111Z,6.40
2023-02-24T15:56:34.747Z,6.30
2023-02-24T15:59:06.022Z,6.30
2023-02-24T16:01:35.156Z,6.30
2023-02-24T16:04:05.620Z,6.30
2023-02-24T16:06:36.090Z,6.30
2023-02-24T16:09:05.553Z,6.30
2023-02-24T16:11:39.647Z,6.30
2023-02-24T16:14:13.945Z,6.20
2023-02-24T16:16:42.947Z,6.20
2023-02-24T16:19:15.413Z,6.20
2023-02-24T16:21:44.522Z,6.10
2023-02-24T16:24:13.224Z,6.20
2023-02-24T16:26:42.131Z,6.20
2023-02-24T16:29:15.907Z,6.30
2023-02-24T16:31:44.860Z,6.30
2023-02-24T16:34:16.147Z,6.20
2023-02-24T16:36:45.003Z,6.20
2023-02-24T16:39:14.916Z,6.20
2023-02-24T16:41:43.563Z,6.20
2023-02-24T16:44:14.289Z,6.10
2023-02-24T16:46:45.966Z,6.10
2023-02-24T16:49:20.775Z,6.30
2023-02-24T16:51:49.379Z,6.20
2023-02-24T16:54:21.691Z,6.20
2023-02-24T16:56:50.584Z,6.10
2023-02-24T16:59:20.675Z,6.10
2023-02-24T17:01:49.398Z,6.10
2023-02-24T17:04:18.115Z,6.10
2023-02-24T17:06:46.893Z,6.10
2023-02-24T17:09:15.624Z,6.10
2023-02-24T17:11:44.964Z,6.10
2023-02-24T17:14:17.587Z,6.10
2023-02-24T17:16:48.302Z,6.10
2023-02-24T17:19:17.687Z,6.10
2023-02-24T17:21:47.026Z,6.10
2023-02-24T17:24:17.653Z,6.10
2023-02-24T17:26:46.327Z,6.00
2023-02-24T17:29:15.343Z,6.00
2023-02-24T17:31:44.143Z,6.00
2023-02-24T17:34:14.184Z,6.00
2023-02-24T17:36:42.806Z,6.10
2023-02-24T17:39:11.442Z,6.00
2023-02-24T17:41:40.182Z,6.00
2023-02-24T17:44:08.765Z,6.10
2023-02-24T17:46:37.420Z,6.10
2023-02-24T17:49:06.134Z,6.10
2023-02-24T17:51:36.009Z,6.10
2023-02-24T17:54:04.974Z,6.10
2023-02-24T17:56:33.641Z,6.10
2023-02-24T17:59:02.221Z,6.10
2023-02-24T18:01:30.857Z,6.10
2023-02-24T18:03:59.358Z,6.10
2023-02-24T18:06:27.963Z,6.10
2023-02-24T18:08:57.896Z,6.10
2023-02-24T18:11:26.462Z,6.00
2023-02-24T18:14:00.349Z,6.00
2023-02-24T18:16:30.033Z,6.10
2023-02-24T18:18:59.319Z,6.10
2023-02-24T18:21:28.253Z,6.10
2023-02-24T18:23:58.268Z,6.10
2023-02-24T18:26:27.144Z,6.00
2023-02-24T18:28:56.532Z,6.00
2023-02-24T18:31:26.509Z,6.00
2023-02-24T18:33:57.063Z,6.00
2023-02-24T18:36:26.642Z,6.00
2023-02-24T18:38:57.381Z,6.00
2023-02-24T18:41:27.443Z,6.00
2023-02-24T18:43:59.055Z,6.00
2023-02-24T18:46:28.658Z,6.00
2023-02-24T18:48:57.899Z,5.90
2023-02-24T18:51:28.879Z,5.90
2023-02-24T18:53:59.309Z,5.90
2023-02-24T18:56:32.113Z,5.90
2023-02-24T18:59:02.128Z,5.90
2023-02-24T19:01:32.363Z,5.90
2023-02-24T19:04:01.534Z,5.90
2023-02-24T19:06:32.147Z,5.90
2023-02-24T19:09:03.039Z,5.90
2023-02-24T19:11:33.265Z,5.90
2023-02-24T19:14:01.835Z,5.90
2023-02-24T19:16:31.209Z,5.90
2023-02-24T19:19:00.841Z,6.00
2023-02-24T19:21:31.513Z,5.90
2023-02-24T19:24:01.937Z,6.00
2023-02-24T19:26:32.149Z,6.00
2023-02-24T19:29:01.043Z,6.10
2023-02-24T19:31:31.100Z,6.00
2023-02-24T19:34:01.743Z,6.00
2023-02-24T19:36:31.999Z,6.00
2023-02-24T19:39:00.834Z,6.00
2023-02-24T19:41:29.685Z,6.00
2023-02-24T19:43:59.859Z,6.00
2023-02-24T19:46:32.776Z,6.00
2023-02-24T19:49:01.399Z,6.00
2023-02-24T19:51:30.051Z,6.10
2023-02-24T19:54:00.335Z,6.10
2023-02-24T19:56:31.589Z,6.20
2023-02-24T19:59:02.565Z,6.20
2023-02-24T20:01:31.878Z,6.20
2023-02-24T20:04:02.447Z,6.20
2023-02-24T20:06:32.675Z,6.30
2023-02-24T20:09:01.709Z,6.20
2023-02-24T20:11:31.012Z,6.00
2023-02-24T20:14:00.923Z,5.90
2023-02-24T20:16:32.630Z,5.70
2023-02-24T20:19:01.762Z,5.70
2023-02-24T20:21:30.985Z,5.70
2023-02-24T20:24:00.919Z,5.60
2023-02-24T20:26:29.838Z,5.60
2023-02-24T20:28:59.938Z,5.60
2023-02-24T20:31:29.963Z,5.60
2023-02-24T20:33:58.540Z,5.50
2023-02-24T20:36:29.366Z,5.50
2023-02-24T20:38:59.926Z,5.50
2023-02-24T20:41:30.640Z,5.60
2023-02-24T20:43:59.395Z,5.60
2023-02-24T20:46:31.592Z,5.60
2023-02-24T20:49:02.279Z,5.60
2023-02-24T20:51:32.474Z,5.60
2023-02-24T20:54:01.263Z,5.60
2023-02-24T20:56:33.962Z,5.70
2023-02-24T20:59:04.884Z,5.70
2023-02-24T21:01:35.769Z,5.70
2023-02-24T21:04:04.871Z,5.70
2023-02-24T21:06:33.755Z,5.70
2023-02-24T21:09:02.536Z,5.80
2023-02-24T21:11:31.233Z,5.60
2023-02-24T21:14:00.069Z,5.60
2023-02-24T21:16:28.770Z,5.60
2023-02-24T21:18:59.455Z,5.60
2023-02-24T21:21:28.354Z,5.60
2023-02-24T21:23:56.936Z,5.50
2023-02-24T21:26:27.094Z,5.50
2023-02-24T21:28:57.883Z,5.50
2023-02-24T21:31:28.109Z,5.50
2023-02-24T21:33:58.511Z,5.50
2023-02-24T21:36:28.054Z,5.50
2023-02-24T21:38:57.127Z,5.50
2023-02-24T21:41:25.615Z,5.60
2023-02-24T21:43:55.957Z,5.50
2023-02-24T21:46:28.471Z,5.50
2023-02-24T21:49:00.282Z,5.40
2023-02-24T21:51:29.564Z,5.50
2023-02-24T21:53:58.933Z,5.40
2023-02-24T21:56:29.566Z,5.50
2023-02-24T21:59:00.040Z,5.40
2023-02-24T22:01:30.731Z,5.40
2023-02-24T22:04:03.282Z,5.40
2023-02-24T22:06:33.582Z,5.40
2023-02-24T22:09:03.697Z,5.40
2023-02-24T22:11:35.178Z,5.40
2023-02-24T22:14:04.498Z,5.40
2023-02-24T22:16:33.161Z,5.40
2023-02-24T22:19:03.762Z,5.40
2023-02-24T22:21:32.559Z,5.50
2023-02-24T22:24:02.913Z,5.50
2023-02-24T22:26:32.933Z,5.50
2023-02-24T22:29:02.492Z,5.50
2023-02-24T22:31:32.893Z,5.50
2023-02-24T22:34:04.348Z,5.50
2023-02-24T22:36:36.740Z,5.50
2023-02-24T22:39:06.559Z,5.50
2023-02-24T22:41:35.974Z,5.50
2023-02-24T22:44:06.723Z,5.50
2023-02-24T22:46:37.631Z,5.40
2023-02-24T22:49:07.911Z,5.50
2023-02-24T22:51:36.693Z,5.50
2023-02-24T22:54:06.131Z,5.50
2023-02-24T22:56:35.200Z,5.40
2023-02-24T22:59:03.827Z,5.40
2023-02-24T23:01:34.856Z,5.40
2023-02-24T23:04:04.905Z,5.40
2023-02-24T23:06:36.283Z,5.40
2023-02-24T23:09:06.169Z,5.40
2023-02-24T23:11:37.445Z,5.40
2023-02-24T23:14:09.980Z,5.40
2023-02-24T23:16:39.167Z,5.40
2023-02-24T23:19:12.110Z,5.40
2023-02-24T23:21:45.191Z,5.40
2023-02-24T23:24:15.601Z,5.40
2023-02-24T23:26:47.117Z,5.40
2023-02-24T23:29:18.244Z,5.40
2023-02-24T23:31:47.574Z,5.40
2023-02-24T23:34:16.582Z,5.40
2023-02-24T23:36:48.029Z,5.30
2023-02-24T23:39:20.281Z,5.40
2023-02-24T23:41:49.445Z,5.30
2023-02-24T23:44:17.997Z,5.30
2023-02-24T23:46:46.792Z,5.30
2023-02-24T23:49:15.896Z,5.40
2023-02-24T23:51:48.831Z,5.40
2023-02-24T23:54:18.513Z,5.40
2023-02-24T23:56:47.449Z,5.40
2023-02-24T23:59:16.491Z,5.50
